sensor_id;sensor_type;location;lat;lon;timestamp;pressure;altitude;pressure_sealevel;temperature;humidity
53651;BME280;39552;45.776;15.892;2022-11-04T00:00:37;99952.31;;;12.87;100.00
53651;BME280;39552;45.776;15.892;2022-11-04T00:03:04;99922.69;;;12.71;100.00
53651;BME280;39552;45.776;15.892;2022-11-04T00:05:31;99896.44;;;12.71;100.00
53651;BME280;39552;45.776;15.892;2022-11-04T00:08:01;99923.22;;;12.89;100.00
53651;BME280;39552;45.776;15.892;2022-11-04T00:10:29;99925.63;;;12.81;100.00
53651;BME280;39552;45.776;15.892;2022-11-04T00:12:56;99934.94;;;12.76;100.00
53651;BME280;39552;45.776;15.892;2022-11-04T00:15:22;99924.09;;;12.76;100.00
53651;BME280;39552;45.776;15.892;2022-11-04T00:17:49;99883.56;;;12.62;100.00
53651;BME280;39552;45.776;15.892;2022-11-04T00:20:16;99923.34;;;12.74;100.00
53651;BME280;39552;45.776;15.892;2022-11-04T00:22:47;99920.22;;;12.68;100.00
53651;BME280;39552;45.776;15.892;2022-11-04T00:25:14;99883.34;;;12.65;100.00
53651;BME280;39552;45.776;15.892;2022-11-04T00:27:44;99920.41;;;12.77;100.00
53651;BME280;39552;45.776;15.892;2022-11-04T00:30:11;99870.72;;;12.40;100.00
53651;BME280;39552;45.776;15.892;2022-11-04T00:32:37;99850.56;;;12.55;100.00
53651;BME280;39552;45.776;15.892;2022-11-04T00:35:05;99843.03;;;12.48;100.00
53651;BME280;39552;45.776;15.892;2022-11-04T00:37:35;99883.94;;;12.69;100.00
53651;BME280;39552;45.776;15.892;2022-11-04T00:40:03;99853.91;;;12.59;100.00
53651;BME280;39552;45.776;15.892;2022-11-04T00:42:30;99854.44;;;12.64;100.00
53651;BME280;39552;45.776;15.892;2022-11-04T00:44:58;99914.13;;;13.01;100.00
53651;BME280;39552;45.776;15.892;2022-11-04T00:47:26;99841.84;;;12.63;100.00
53651;BME280;39552;45.776;15.892;2022-11-04T00:49:53;99897.63;;;13.04;100.00
53651;BME280;39552;45.776;15.892;2022-11-04T00:52:20;99870.13;;;12.85;100.00
53651;BME280;39552;45.776;15.892;2022-11-04T00:54:47;99859.94;;;12.99;100.00
53651;BME280;39552;45.776;15.892;2022-11-04T00:57:14;99820.72;;;12.79;100.00
53651;BME280;39552;45.776;15.892;2022-11-04T00:59:41;99809.75;;;12.57;100.00
53651;BME280;39552;45.776;15.892;2022-11-04T01:02:10;99839.72;;;12.79;100.00
53651;BME280;39552;45.776;15.892;2022-11-04T01:04:37;99848.63;;;12.82;100.00
53651;BME280;39552;45.776;15.892;2022-11-04T01:07:04;99851.91;;;12.74;100.00
53651;BME280;39552;45.776;15.892;2022-11-04T01:09:31;99838.28;;;12.87;100.00
53651;BME280;39552;45.776;15.892;2022-11-04T01:11:59;99813.28;;;12.70;100.00
53651;BME280;39552;45.776;15.892;2022-11-04T01:14:26;99804.31;;;12.57;100.00
53651;BME280;39552;45.776;15.892;2022-11-04T01:16:53;99829.78;;;12.91;100.00
53651;BME280;39552;45.776;15.892;2022-11-04T01:19:24;99826.59;;;12.97;100.00
53651;BME280;39552;45.776;15.892;2022-11-04T01:22:05;99812.09;;;13.10;100.00
53651;BME280;39552;45.776;15.892;2022-11-04T01:24:32;99843.34;;;13.15;100.00
53651;BME280;39552;45.776;15.892;2022-11-04T01:26:59;99867.50;;;13.31;100.00
53651;BME280;39552;45.776;15.892;2022-11-04T01:29:26;99802.28;;;12.96;100.00
53651;BME280;39552;45.776;15.892;2022-11-04T01:31:53;99783.25;;;12.85;100.00
53651;BME280;39552;45.776;15.892;2022-11-04T01:34:20;99827.66;;;13.19;100.00
53651;BME280;39552;45.776;15.892;2022-11-04T01:36:49;99784.16;;;12.96;100.00
53651;BME280;39552;45.776;15.892;2022-11-04T01:39:16;99781.44;;;12.96;100.00
53651;BME280;39552;45.776;15.892;2022-11-04T01:41:43;99767.13;;;12.94;100.00
53651;BME280;39552;45.776;15.892;2022-11-04T01:47:16;99787.41;;;13.24;100.00
53651;BME280;39552;45.776;15.892;2022-11-04T01:49:46;99766.81;;;13.22;100.00
53651;BME280;39552;45.776;15.892;2022-11-04T01:52:18;99794.94;;;13.56;100.00
53651;BME280;39552;45.776;15.892;2022-11-04T01:54:48;99741.59;;;13.08;100.00
53651;BME280;39552;45.776;15.892;2022-11-04T01:57:26;99747.69;;;13.23;100.00
53651;BME280;39552;45.776;15.892;2022-11-04T01:59:57;99724.69;;;13.16;100.00
53651;BME280;39552;45.776;15.892;2022-11-04T02:02:26;99796.75;;;13.33;100.00
53651;BME280;39552;45.776;15.892;2022-11-04T02:04:53;99793.50;;;13.28;100.00
53651;BME280;39552;45.776;15.892;2022-11-04T02:07:21;99758.97;;;12.94;100.00
53651;BME280;39552;45.776;15.892;2022-11-04T02:09:48;99749.97;;;13.05;100.00
53651;BME280;39552;45.776;15.892;2022-11-04T02:12:15;99741.97;;;13.15;100.00
53651;BME280;39552;45.776;15.892;2022-11-04T02:14:43;99756.31;;;13.28;100.00
53651;BME280;39552;45.776;15.892;2022-11-04T02:17:21;99708.97;;;12.97;100.00
53651;BME280;39552;45.776;15.892;2022-11-04T02:20:00;99735.16;;;13.09;100.00
53651;BME280;39552;45.776;15.892;2022-11-04T02:23:12;99763.97;;;13.23;100.00
53651;BME280;39552;45.776;15.892;2022-11-04T02:31:47;99705.75;;;12.92;100.00
53651;BME280;39552;45.776;15.892;2022-11-04T02:34:21;99714.03;;;13.02;100.00
53651;BME280;39552;45.776;15.892;2022-11-04T02:36:57;99686.34;;;12.74;100.00
53651;BME280;39552;45.776;15.892;2022-11-04T02:39:35;99736.19;;;13.20;100.00
53651;BME280;39552;45.776;15.892;2022-11-04T02:42:10;99701.56;;;12.99;100.00
53651;BME280;39552;45.776;15.892;2022-11-04T02:44:44;99700.84;;;12.97;100.00
53651;BME280;39552;45.776;15.892;2022-11-04T02:47:15;99669.47;;;12.93;100.00
53651;BME280;39552;45.776;15.892;2022-11-04T02:49:48;99710.09;;;12.94;100.00
53651;BME280;39552;45.776;15.892;2022-11-04T02:52:21;99664.28;;;12.90;100.00
53651;BME280;39552;45.776;15.892;2022-11-04T02:54:54;99646.00;;;12.69;100.00
53651;BME280;39552;45.776;15.892;2022-11-04T02:57:26;99652.25;;;12.58;100.00
53651;BME280;39552;45.776;15.892;2022-11-04T02:59:59;99678.84;;;12.89;100.00
53651;BME280;39552;45.776;15.892;2022-11-04T03:02:33;99653.16;;;12.70;100.00
53651;BME280;39552;45.776;15.892;2022-11-04T03:05:02;99671.94;;;12.85;100.00
53651;BME280;39552;45.776;15.892;2022-11-04T03:07:32;99677.22;;;12.75;100.00
53651;BME280;39552;45.776;15.892;2022-11-04T03:10:05;99706.78;;;13.02;100.00
53651;BME280;39552;45.776;15.892;2022-11-04T03:12:46;99707.84;;;12.88;100.00
53651;BME280;39552;45.776;15.892;2022-11-04T03:15:18;99654.34;;;12.55;100.00
53651;BME280;39552;45.776;15.892;2022-11-04T03:17:51;99652.50;;;12.67;100.00
53651;BME280;39552;45.776;15.892;2022-11-04T03:20:23;99650.16;;;12.62;100.00
53651;BME280;39552;45.776;15.892;2022-11-04T03:22:51;99652.81;;;12.75;100.00
53651;BME280;39552;45.776;15.892;2022-11-04T03:25:18;99630.28;;;12.50;100.00
53651;BME280;39552;45.776;15.892;2022-11-04T03:27:49;99674.91;;;12.93;100.00
53651;BME280;39552;45.776;15.892;2022-11-04T03:30:21;99671.09;;;12.95;100.00
53651;BME280;39552;45.776;15.892;2022-11-04T03:32:57;99666.22;;;12.76;100.00
53651;BME280;39552;45.776;15.892;2022-11-04T03:35:28;99638.81;;;12.57;100.00
53651;BME280;39552;45.776;15.892;2022-11-04T03:38:18;99664.72;;;12.61;100.00
53651;BME280;39552;45.776;15.892;2022-11-04T03:40:51;99700.84;;;12.97;100.00
53651;BME280;39552;45.776;15.892;2022-11-04T03:43:27;99637.69;;;12.48;100.00
53651;BME280;39552;45.776;15.892;2022-11-04T03:45:58;99623.16;;;12.61;100.00
53651;BME280;39552;45.776;15.892;2022-11-04T03:48:28;99624.34;;;12.45;100.00
53651;BME280;39552;45.776;15.892;2022-11-04T03:51:03;99646.69;;;12.49;100.00
53651;BME280;39552;45.776;15.892;2022-11-04T03:53:30;99649.38;;;12.49;100.00
53651;BME280;39552;45.776;15.892;2022-11-04T03:56:20;99629.69;;;12.58;100.00
53651;BME280;39552;45.776;15.892;2022-11-04T03:59:01;99635.97;;;12.58;100.00
53651;BME280;39552;45.776;15.892;2022-11-04T04:01:39;99660.81;;;12.88;100.00
53651;BME280;39552;45.776;15.892;2022-11-04T04:04:15;99696.63;;;12.93;100.00
53651;BME280;39552;45.776;15.892;2022-11-04T04:06:47;99618.56;;;12.61;100.00
53651;BME280;39552;45.776;15.892;2022-11-04T04:09:20;99663.53;;;12.88;100.00
53651;BME280;39552;45.776;15.892;2022-11-04T04:11:52;99664.50;;;12.75;100.00
53651;BME280;39552;45.776;15.892;2022-11-04T04:14:26;99640.19;;;12.63;100.00
53651;BME280;39552;45.776;15.892;2022-11-04T04:16:55;99640.06;;;12.64;100.00
53651;BME280;39552;45.776;15.892;2022-11-04T04:19:25;99687.47;;;12.94;100.00
53651;BME280;39552;45.776;15.892;2022-11-04T04:21:58;99605.13;;;12.48;100.00
53651;BME280;39552;45.776;15.892;2022-11-04T04:24:30;99652.66;;;12.76;100.00
53651;BME280;39552;45.776;15.892;2022-11-04T04:26:58;99650.31;;;12.72;100.00
53651;BME280;39552;45.776;15.892;2022-11-04T04:29:27;99608.94;;;12.57;100.00
53651;BME280;39552;45.776;15.892;2022-11-04T04:31:57;99665.31;;;13.00;100.00
53651;BME280;39552;45.776;15.892;2022-11-04T04:34:27;99658.25;;;12.97;100.00
53651;BME280;39552;45.776;15.892;2022-11-04T04:37:00;99611.81;;;12.67;100.00
53651;BME280;39552;45.776;15.892;2022-11-04T04:39:33;99625.50;;;12.76;100.00
53651;BME280;39552;45.776;15.892;2022-11-04T04:42:02;99616.91;;;12.83;100.00
53651;BME280;39552;45.776;15.892;2022-11-04T04:44:29;99620.00;;;12.89;100.00
53651;BME280;39552;45.776;15.892;2022-11-04T04:46:56;99579.13;;;12.68;100.00
53651;BME280;39552;45.776;15.892;2022-11-04T04:49:26;99594.19;;;12.84;100.00
53651;BME280;39552;45.776;15.892;2022-11-04T04:51:53;99624.69;;;12.98;100.00
53651;BME280;39552;45.776;15.892;2022-11-04T04:54:19;99621.25;;;12.96;100.00
53651;BME280;39552;45.776;15.892;2022-11-04T04:56:46;99618.25;;;12.99;100.00
53651;BME280;39552;45.776;15.892;2022-11-04T04:59:13;99585.53;;;12.78;100.00
53651;BME280;39552;45.776;15.892;2022-11-04T05:01:46;99609.97;;;12.90;100.00
53651;BME280;39552;45.776;15.892;2022-11-04T05:04:13;99628.00;;;12.91;100.00
53651;BME280;39552;45.776;15.892;2022-11-04T05:06:41;99616.91;;;12.83;100.00
53651;BME280;39552;45.776;15.892;2022-11-04T05:09:08;99581.47;;;12.62;100.00
53651;BME280;39552;45.776;15.892;2022-11-04T05:11:37;99588.84;;;12.71;100.00
53651;BME280;39552;45.776;15.892;2022-11-04T05:14:04;99613.44;;;12.92;100.00
53651;BME280;39552;45.776;15.892;2022-11-04T05:16:32;99573.78;;;12.55;100.00
53651;BME280;39552;45.776;15.892;2022-11-04T05:19:06;99582.47;;;12.72;100.00
53651;BME280;39552;45.776;15.892;2022-11-04T05:21:37;99612.69;;;12.90;100.00
53651;BME280;39552;45.776;15.892;2022-11-04T05:24:13;99658.13;;;12.99;100.00
53651;BME280;39552;45.776;15.892;2022-11-04T05:26:40;99617.50;;;12.86;100.00
53651;BME280;39552;45.776;15.892;2022-11-04T05:29:07;99627.53;;;12.97;100.00
53651;BME280;39552;45.776;15.892;2022-11-04T05:31:35;99613.44;;;12.92;100.00
53651;BME280;39552;45.776;15.892;2022-11-04T05:34:01;99601.84;;;13.01;100.00
53651;BME280;39552;45.776;15.892;2022-11-04T05:36:28;99603.31;;;12.94;100.00
53651;BME280;39552;45.776;15.892;2022-11-04T05:38:55;99619.13;;;13.11;100.00
53651;BME280;39552;45.776;15.892;2022-11-04T05:41:23;99635.91;;;13.28;100.00
53651;BME280;39552;45.776;15.892;2022-11-04T05:43:50;99597.53;;;12.98;100.00
53651;BME280;39552;45.776;15.892;2022-11-04T05:46:17;99611.75;;;13.02;100.00
53651;BME280;39552;45.776;15.892;2022-11-04T05:48:44;99623.22;;;13.06;100.00
53651;BME280;39552;45.776;15.892;2022-11-04T05:51:12;99582.22;;;12.86;100.00
53651;BME280;39552;45.776;15.892;2022-11-04T05:53:39;99620.75;;;13.03;100.00
53651;BME280;39552;45.776;15.892;2022-11-04T05:56:06;99613.69;;;13.11;100.00
53651;BME280;39552;45.776;15.892;2022-11-04T05:58:35;99599.00;;;13.03;100.00
53651;BME280;39552;45.776;15.892;2022-11-04T06:01:13;99591.25;;;12.98;100.00
53651;BME280;39552;45.776;15.892;2022-11-04T06:03:40;99607.41;;;12.99;100.00
53651;BME280;39552;45.776;15.892;2022-11-04T06:06:07;99577.16;;;12.93;100.00
53651;BME280;39552;45.776;15.892;2022-11-04T06:08:34;99575.31;;;13.16;100.00
53651;BME280;39552;45.776;15.892;2022-11-04T06:11:01;99578.66;;;13.20;100.00
53651;BME280;39552;45.776;15.892;2022-11-04T06:13:27;99588.16;;;13.14;100.00
53651;BME280;39552;45.776;15.892;2022-11-04T06:15:56;99538.16;;;13.05;100.00
53651;BME280;39552;45.776;15.892;2022-11-04T06:18:22;99576.66;;;13.22;100.00
53651;BME280;39552;45.776;15.892;2022-11-04T06:20:49;99526.78;;;13.11;100.00
53651;BME280;39552;45.776;15.892;2022-11-04T06:23:16;99590.84;;;13.36;100.00
53651;BME280;39552;45.776;15.892;2022-11-04T06:25:43;99552.47;;;13.07;100.00
53651;BME280;39552;45.776;15.892;2022-11-04T06:28:09;99547.31;;;13.04;100.00
53651;BME280;39552;45.776;15.892;2022-11-04T06:30:36;99524.84;;;13.13;100.00
53651;BME280;39552;45.776;15.892;2022-11-04T06:33:05;99539.16;;;13.15;100.00
53651;BME280;39552;45.776;15.892;2022-11-04T06:35:31;99565.81;;;13.10;100.00
53651;BME280;39552;45.776;15.892;2022-11-04T06:37:58;99575.19;;;13.17;100.00
53651;BME280;39552;45.776;15.892;2022-11-04T06:40:25;99607.03;;;13.38;100.00
53651;BME280;39552;45.776;15.892;2022-11-04T06:42:52;99602.59;;;13.48;100.00
53651;BME280;39552;45.776;15.892;2022-11-04T06:45:19;99575.31;;;13.27;100.00
53651;BME280;39552;45.776;15.892;2022-11-04T06:47:45;99570.22;;;13.11;100.00
53651;BME280;39552;45.776;15.892;2022-11-04T06:50:14;99597.78;;;13.41;100.00
53651;BME280;39552;45.776;15.892;2022-11-04T06:52:40;99536.81;;;12.88;100.00
53651;BME280;39552;45.776;15.892;2022-11-04T06:55:08;99552.22;;;13.10;100.00
53651;BME280;39552;45.776;15.892;2022-11-04T06:57:35;99546.31;;;12.94;100.00
53651;BME280;39552;45.776;15.892;2022-11-04T07:00:03;99522.97;;;13.14;100.00
53651;BME280;39552;45.776;15.892;2022-11-04T07:02:30;99583.09;;;13.43;100.00
53651;BME280;39552;45.776;15.892;2022-11-04T07:04:58;99525.06;;;13.10;100.00
53651;BME280;39552;45.776;15.892;2022-11-04T07:07:27;99521.50;;;13.10;100.00
53651;BME280;39552;45.776;15.892;2022-11-04T07:09:55;99574.31;;;13.51;100.00
53651;BME280;39552;45.776;15.892;2022-11-04T07:12:21;99533.81;;;13.25;100.00
53651;BME280;39552;45.776;15.892;2022-11-04T07:14:48;99500.88;;;13.07;100.00
53651;BME280;39552;45.776;15.892;2022-11-04T07:17:15;99493.88;;;12.82;100.00
53651;BME280;39552;45.776;15.892;2022-11-04T07:19:42;99537.13;;;13.29;100.00
53651;BME280;39552;45.776;15.892;2022-11-04T07:22:09;99535.44;;;12.94;100.00
53651;BME280;39552;45.776;15.892;2022-11-04T07:24:37;99569.50;;;13.43;100.00
53651;BME280;39552;45.776;15.892;2022-11-04T07:27:14;99543.34;;;13.31;100.00
53651;BME280;39552;45.776;15.892;2022-11-04T07:29:41;99525.06;;;13.22;100.00
53651;BME280;39552;45.776;15.892;2022-11-04T07:32:08;99482.13;;;13.15;100.00
53651;BME280;39552;45.776;15.892;2022-11-04T07:34:35;99540.09;;;13.26;100.00
53651;BME280;39552;45.776;15.892;2022-11-04T07:37:02;99502.41;;;12.89;100.00
53651;BME280;39552;45.776;15.892;2022-11-04T07:39:29;99497.81;;;12.78;100.00
53651;BME280;39552;45.776;15.892;2022-11-04T07:42:02;99538.97;;;13.28;100.00
53651;BME280;39552;45.776;15.892;2022-11-04T07:48:09;99455.50;;;12.98;100.00
53651;BME280;39552;45.776;15.892;2022-11-04T08:39:10;99462.84;;;13.18;100.00
53651;BME280;39552;45.776;15.892;2022-11-04T08:41:46;99407.38;;;12.89;100.00
53651;BME280;39552;45.776;15.892;2022-11-04T08:44:25;99436.69;;;13.17;100.00
53651;BME280;39552;45.776;15.892;2022-11-04T08:46:52;99456.50;;;13.62;100.00
53651;BME280;39552;45.776;15.892;2022-11-04T08:49:19;99378.34;;;13.01;100.00
53651;BME280;39552;45.776;15.892;2022-11-04T08:51:50;99437.50;;;13.62;100.00
53651;BME280;39552;45.776;15.892;2022-11-04T08:54:28;99418.09;;;13.66;100.00
53651;BME280;39552;45.776;15.892;2022-11-04T08:57:02;99366.91;;;13.50;100.00
53651;BME280;39552;45.776;15.892;2022-11-04T08:59:36;99346.09;;;13.40;100.00
53651;BME280;39552;45.776;15.892;2022-11-04T09:02:10;99370.31;;;13.64;100.00
53651;BME280;39552;45.776;15.892;2022-11-04T09:04:46;99408.53;;;13.93;100.00
53651;BME280;39552;45.776;15.892;2022-11-04T09:07:13;99370.94;;;13.77;100.00
53651;BME280;39552;45.776;15.892;2022-11-04T09:09:41;99363.84;;;13.44;100.00
53651;BME280;39552;45.776;15.892;2022-11-04T09:12:08;99350.13;;;13.45;100.00
53651;BME280;39552;45.776;15.892;2022-11-04T09:14:35;99384.88;;;13.63;100.00
53651;BME280;39552;45.776;15.892;2022-11-04T09:17:02;99414.59;;;13.96;100.00
53651;BME280;39552;45.776;15.892;2022-11-04T09:19:29;99333.31;;;13.51;100.00
53651;BME280;39552;45.776;15.892;2022-11-04T09:21:56;99393.94;;;13.94;100.00
53651;BME280;39552;45.776;15.892;2022-11-04T09:24:26;99388.53;;;14.34;100.00
53651;BME280;39552;45.776;15.892;2022-11-04T09:26:55;99358.97;;;14.10;100.00
53651;BME280;39552;45.776;15.892;2022-11-04T09:29:21;99347.09;;;14.21;100.00
53651;BME280;39552;45.776;15.892;2022-11-04T09:31:48;99332.41;;;14.24;100.00
53651;BME280;39552;45.776;15.892;2022-11-04T09:34:16;99360.06;;;14.39;100.00
53651;BME280;39552;45.776;15.892;2022-11-04T09:36:43;99313.13;;;14.06;100.00
53651;BME280;39552;45.776;15.892;2022-11-04T09:39:10;99365.78;;;14.35;100.00
53651;BME280;39552;45.776;15.892;2022-11-04T09:44:48;99288.22;;;14.01;100.00
53651;BME280;39552;45.776;15.892;2022-11-04T09:47:41;99349.97;;;14.60;100.00
53651;BME280;39552;45.776;15.892;2022-11-04T09:50:15;99280.13;;;14.20;100.00
53651;BME280;39552;45.776;15.892;2022-11-04T09:52:53;99354.25;;;14.53;100.00
53651;BME280;39552;45.776;15.892;2022-11-04T09:55:25;99271.88;;;13.91;100.00
53651;BME280;39552;45.776;15.892;2022-11-04T09:57:57;99249.72;;;14.05;100.00
53651;BME280;39552;45.776;15.892;2022-11-04T10:00:29;99276.44;;;14.50;100.00
53651;BME280;39552;45.776;15.892;2022-11-04T10:03:08;99298.31;;;14.80;100.00
53651;BME280;39552;45.776;15.892;2022-11-04T10:05:52;99306.75;;;14.67;100.00
53651;BME280;39552;45.776;15.892;2022-11-04T10:08:37;99270.34;;;15.07;100.00
53651;BME280;39552;45.776;15.892;2022-11-04T10:11:12;99269.06;;;15.11;100.00
53651;BME280;39552;45.776;15.892;2022-11-04T10:13:59;99268.44;;;15.37;100.00
53651;BME280;39552;45.776;15.892;2022-11-04T10:16:48;99274.75;;;15.27;100.00
53651;BME280;39552;45.776;15.892;2022-11-04T10:19:29;99221.47;;;15.05;100.00
53651;BME280;39552;45.776;15.892;2022-11-04T10:22:06;99247.81;;;15.24;100.00
53651;BME280;39552;45.776;15.892;2022-11-04T10:24:41;99208.78;;;15.24;100.00
53651;BME280;39552;45.776;15.892;2022-11-04T10:27:15;99182.88;;;15.10;100.00
53651;BME280;39552;45.776;15.892;2022-11-04T10:29:44;99236.13;;;15.51;100.00
53651;BME280;39552;45.776;15.892;2022-11-04T10:32:21;99218.75;;;15.52;100.00
53651;BME280;39552;45.776;15.892;2022-11-04T10:34:52;99208.13;;;15.59;100.00
53651;BME280;39552;45.776;15.892;2022-11-04T10:37:23;99207.22;;;15.78;100.00
53651;BME280;39552;45.776;15.892;2022-11-04T10:39:52;99231.19;;;15.75;100.00
53651;BME280;39552;45.776;15.892;2022-11-04T10:42:22;99190.75;;;15.98;100.00
53651;BME280;39552;45.776;15.892;2022-11-04T10:45:09;99162.84;;;16.04;100.00
53651;BME280;39552;45.776;15.892;2022-11-04T10:47:46;99175.91;;;15.82;100.00
53651;BME280;39552;45.776;15.892;2022-11-04T10:50:29;99163.34;;;16.17;100.00
53651;BME280;39552;45.776;15.892;2022-11-04T10:53:21;99146.25;;;16.15;100.00
53651;BME280;39552;45.776;15.892;2022-11-04T10:56:13;99162.09;;;16.29;100.00
53651;BME280;39552;45.776;15.892;2022-11-04T10:59:24;99086.31;;;16.23;100.00
53651;BME280;39552;45.776;15.892;2022-11-04T11:02:11;99105.72;;;16.38;100.00
53651;BME280;39552;45.776;15.892;2022-11-04T11:04:39;99097.16;;;16.15;100.00
53651;BME280;39552;45.776;15.892;2022-11-04T11:07:07;99070.31;;;15.92;100.00
53651;BME280;39552;45.776;15.892;2022-11-04T11:09:36;99122.25;;;16.37;100.00
53651;BME280;39552;45.776;15.892;2022-11-04T11:12:18;99079.97;;;16.05;100.00
53651;BME280;39552;45.776;15.892;2022-11-04T11:15:18;99118.19;;;16.41;100.00
53651;BME280;39552;45.776;15.892;2022-11-04T11:17:52;99053.16;;;16.00;100.00
53651;BME280;39552;45.776;15.892;2022-11-04T11:20:24;99059.97;;;15.96;100.00
53651;BME280;39552;45.776;15.892;2022-11-04T11:22:51;99051.28;;;16.37;100.00
53651;BME280;39552;45.776;15.892;2022-11-04T11:25:25;99046.22;;;16.42;100.00
53651;BME280;39552;45.776;15.892;2022-11-04T11:27:55;99097.34;;;17.02;100.00
53651;BME280;39552;45.776;15.892;2022-11-04T11:30:25;99060.44;;;16.80;100.00
53651;BME280;39552;45.776;15.892;2022-11-04T11:32:56;99062.09;;;16.90;100.00
53651;BME280;39552;45.776;15.892;2022-11-04T11:35:30;99080.81;;;17.46;100.00
53651;BME280;39552;45.776;15.892;2022-11-04T11:37:59;99062.72;;;17.53;100.00
53651;BME280;39552;45.776;15.892;2022-11-04T11:40:28;99028.25;;;17.18;100.00
53651;BME280;39552;45.776;15.892;2022-11-04T11:42:58;99035.28;;;17.28;100.00
53651;BME280;39552;45.776;15.892;2022-11-04T11:45:29;99061.50;;;17.47;100.00
53651;BME280;39552;45.776;15.892;2022-11-04T11:48:26;99017.03;;;17.29;100.00
53651;BME280;39552;45.776;15.892;2022-11-04T11:51:01;98971.88;;;17.17;100.00
53651;BME280;39552;45.776;15.892;2022-11-04T11:53:38;98992.97;;;17.49;100.00
53651;BME280;39552;45.776;15.892;2022-11-04T11:56:17;98989.03;;;17.43;100.00
53651;BME280;39552;45.776;15.892;2022-11-04T11:59:16;99023.34;;;17.88;100.00
53651;BME280;39552;45.776;15.892;2022-11-04T12:02:39;99012.59;;;18.03;100.00
53651;BME280;39552;45.776;15.892;2022-11-04T12:05:08;99030.22;;;18.09;100.00
53651;BME280;39552;45.776;15.892;2022-11-04T12:08:05;98966.84;;;17.55;100.00
53651;BME280;39552;45.776;15.892;2022-11-04T12:11:01;99005.44;;;17.43;100.00
53651;BME280;39552;45.776;15.892;2022-11-04T12:13:54;99020.41;;;17.74;100.00
53651;BME280;39552;45.776;15.892;2022-11-04T12:16:31;99019.34;;;17.58;100.00
53651;BME280;39552;45.776;15.892;2022-11-04T12:19:13;98957.91;;;17.36;100.00
53651;BME280;39552;45.776;15.892;2022-11-04T12:21:58;98976.06;;;17.54;100.00
53651;BME280;39552;45.776;15.892;2022-11-04T12:27:58;98996.09;;;17.54;100.00
53651;BME280;39552;45.776;15.892;2022-11-04T12:30:34;98979.59;;;17.29;100.00
53651;BME280;39552;45.776;15.892;2022-11-04T12:33:16;99020.97;;;17.94;100.00
53651;BME280;39552;45.776;15.892;2022-11-04T12:35:58;98968.13;;;17.85;100.00
53651;BME280;39552;45.776;15.892;2022-11-04T12:38:41;99040.31;;;18.08;100.00
53651;BME280;39552;45.776;15.892;2022-11-04T12:41:20;99011.22;;;17.99;100.00
53651;BME280;39552;45.776;15.892;2022-11-04T12:44:20;98989.31;;;17.91;100.00
53651;BME280;39552;45.776;15.892;2022-11-04T12:47:03;99009.97;;;17.77;100.00
53651;BME280;39552;45.776;15.892;2022-11-04T12:50:03;99013.03;;;17.58;100.00
53651;BME280;39552;45.776;15.892;2022-11-04T12:52:46;98991.03;;;17.84;100.00
53651;BME280;39552;45.776;15.892;2022-11-04T12:55:32;98988.47;;;18.07;100.00
53651;BME280;39552;45.776;15.892;2022-11-04T12:58:17;99024.72;;;18.42;100.00
53651;BME280;39552;45.776;15.892;2022-11-04T13:00:52;98953.22;;;17.79;100.00
53651;BME280;39552;45.776;15.892;2022-11-04T13:03:26;99006.28;;;18.27;100.00
53651;BME280;39552;45.776;15.892;2022-11-04T13:05:55;99007.97;;;18.28;100.00
53651;BME280;39552;45.776;15.892;2022-11-04T13:08:27;98965.34;;;18.34;100.00
53651;BME280;39552;45.776;15.892;2022-11-04T13:11:01;98970.47;;;18.45;100.00
53651;BME280;39552;45.776;15.892;2022-11-04T13:13:35;98960.84;;;18.66;100.00
53651;BME280;39552;45.776;15.892;2022-11-04T13:16:08;98971.06;;;18.89;100.00
53651;BME280;39552;45.776;15.892;2022-11-04T13:18:38;98994.19;;;18.94;100.00
53651;BME280;39552;45.776;15.892;2022-11-04T13:21:09;98961.00;;;18.73;100.00
53651;BME280;39552;45.776;15.892;2022-11-04T13:23:40;98949.91;;;18.66;100.00
53651;BME280;39552;45.776;15.892;2022-11-04T13:26:13;98966.81;;;18.70;100.00
53651;BME280;39552;45.776;15.892;2022-11-04T13:28:41;98981.03;;;18.73;100.00
53651;BME280;39552;45.776;15.892;2022-11-04T13:31:17;98990.97;;;18.58;100.00
53651;BME280;39552;45.776;15.892;2022-11-04T13:33:54;98948.44;;;18.22;100.00
53651;BME280;39552;45.776;15.892;2022-11-04T13:36:31;98988.81;;;18.04;100.00
53651;BME280;39552;45.776;15.892;2022-11-04T13:39:03;98988.97;;;17.94;100.00
53651;BME280;39552;45.776;15.892;2022-11-04T13:42:10;98975.94;;;17.72;100.00
53651;BME280;39552;45.776;15.892;2022-11-04T13:44:45;99064.09;;;17.15;100.00
53651;BME280;39552;45.776;15.892;2022-11-04T13:47:30;99073.81;;;16.65;100.00
53651;BME280;39552;45.776;15.892;2022-11-04T13:50:00;99098.41;;;16.65;100.00
53651;BME280;39552;45.776;15.892;2022-11-04T13:52:46;99162.41;;;16.44;100.00
53651;BME280;39552;45.776;15.892;2022-11-04T13:55:19;99106.50;;;26.20;100.00
53651;BME280;39552;45.776;15.892;2022-11-04T13:57:57;99134.75;;;20.46;100.00
53651;BME280;39552;45.776;15.892;2022-11-04T14:04:00;99221.91;;;41.68;100.00
53651;BME280;39552;45.776;15.892;2022-11-04T14:06:47;99285.66;;;18.69;100.00
53651;BME280;39552;45.776;15.892;2022-11-04T14:09:35;99291.72;;;17.07;100.00
53651;BME280;39552;45.776;15.892;2022-11-04T14:12:25;99302.97;;;16.86;100.00
53651;BME280;39552;45.776;15.892;2022-11-04T14:14:53;99285.91;;;16.74;100.00
53651;BME280;39552;45.776;15.892;2022-11-04T14:21:05;65235.84;;;-146.61;100.00
53651;BME280;39552;45.776;15.892;2022-11-04T14:23:33;65235.84;;;-146.61;100.00